createdAt,value
2024-05-09T10:56:14.724Z,3.20
2024-05-09T10:58:41.465Z,3.38
2024-05-09T11:01:08.338Z,4.13
2024-05-09T11:03:36.118Z,3.28
2024-05-09T11:06:03.169Z,3.08
2024-05-09T11:08:31.651Z,3.40
2024-05-09T11:10:58.401Z,3.67
2024-05-09T11:13:32.141Z,2.72
2024-05-09T11:15:59.941Z,3.10
2024-05-09T11:18:30.680Z,3.40
2024-05-09T11:21:00.258Z,3.70
2024-05-09T11:23:27.802Z,3.05
2024-05-09T11:25:56.156Z,2.78
2024-05-09T11:28:23.756Z,3.15
2024-05-09T11:30:51.949Z,3.10
2024-05-09T11:33:19.481Z,3.03
2024-05-09T11:35:47.039Z,3.08
2024-05-09T11:38:14.104Z,3.40
2024-05-09T11:40:40.773Z,2.78
2024-05-09T11:43:07.452Z,3.00
2024-05-09T11:48:00.821Z,3.30
2024-05-09T11:50:32.654Z,2.90
2024-05-09T11:53:02.005Z,3.03
2024-05-09T11:57:55.818Z,2.88
2024-05-09T12:00:29.671Z,3.38
2024-05-09T12:03:03.185Z,2.97
2024-05-09T12:05:29.810Z,2.72
2024-05-09T12:07:56.463Z,2.85
2024-05-09T12:10:32.059Z,2.90
2024-05-09T12:13:01.080Z,2.70
2024-05-09T12:15:27.667Z,3.35
2024-05-09T12:17:54.994Z,3.10
2024-05-09T12:20:28.854Z,3.20
2024-05-09T12:23:02.277Z,3.05
2024-05-09T12:25:28.717Z,2.88
2024-05-09T12:27:55.319Z,3.00
2024-05-09T12:30:32.557Z,3.40
2024-05-09T12:33:04.275Z,3.50
2024-05-09T12:35:31.099Z,3.13
2024-05-09T12:37:57.609Z,2.67
2024-05-09T12:43:03.891Z,3.13
2024-05-09T12:45:30.457Z,3.40
2024-05-09T12:47:57.075Z,3.40
2024-05-09T12:50:29.952Z,3.13
2024-05-09T12:52:59.460Z,3.08
2024-05-09T12:55:26.001Z,3.50
2024-05-09T12:57:52.901Z,3.28
2024-05-09T13:00:24.154Z,2.80
2024-05-09T13:02:57.817Z,3.17
2024-05-09T13:05:24.698Z,2.80
2024-05-09T13:07:51.331Z,2.55
2024-05-09T13:10:25.806Z,2.75
2024-05-09T13:12:58.942Z,2.53
2024-05-09T13:15:25.417Z,2.88
2024-05-09T13:20:26.180Z,2.75
2024-05-09T13:23:01.280Z,3.40
2024-05-09T13:25:27.800Z,2.58
2024-05-09T13:30:29.371Z,2.55
2024-05-09T13:33:05.143Z,2.92
2024-05-09T13:35:31.907Z,3.30
2024-05-09T13:37:58.483Z,2.58
2024-05-09T13:40:32.206Z,2.42
2024-05-09T13:43:01.346Z,2.85
2024-05-09T13:47:54.396Z,2.97
2024-05-09T13:53:00.648Z,2.72
2024-05-09T13:55:27.167Z,2.30
2024-05-09T13:57:53.962Z,2.50
2024-05-09T14:02:50.083Z,2.42
2024-05-09T14:05:16.954Z,2.40
2024-05-09T14:07:44.087Z,2.78
2024-05-09T14:10:19.774Z,2.90
2024-05-09T14:12:52.141Z,2.88
2024-05-09T14:15:18.655Z,2.63
2024-05-09T14:17:45.937Z,2.88
2024-05-09T14:20:16.626Z,2.83
2024-05-09T14:22:49.722Z,2.58
2024-05-09T14:25:16.348Z,3.20
2024-05-09T14:27:42.878Z,2.70
2024-05-09T14:32:49.143Z,2.85
2024-05-09T14:35:15.830Z,2.42
2024-05-09T14:40:14.767Z,2.70
2024-05-09T14:42:48.175Z,2.30
2024-05-09T14:47:41.384Z,2.75
2024-05-09T14:50:11.136Z,2.35
2024-05-09T14:52:40.230Z,3.10
2024-05-09T14:55:08.566Z,2.47
2024-05-09T14:57:36.685Z,2.88
2024-05-09T15:02:33.468Z,3.00
2024-05-09T15:05:00.104Z,2.60
2024-05-09T15:07:26.763Z,2.78
2024-05-09T15:12:19.758Z,2.40
2024-05-09T15:14:46.302Z,3.10
2024-05-09T15:19:39.522Z,2.35
2024-05-09T15:22:06.200Z,2.28
2024-05-09T15:24:32.737Z,2.50
2024-05-09T15:26:59.317Z,2.65
2024-05-09T15:29:25.811Z,2.40
2024-05-09T15:31:52.268Z,3.10
2024-05-09T15:34:18.936Z,2.40
2024-05-09T15:36:45.545Z,4.82
2024-05-09T15:39:12.032Z,3.97
2024-05-09T15:41:38.580Z,2.72
2024-05-09T15:44:05.080Z,2.53
2024-05-09T15:46:31.680Z,2.75
2024-05-09T15:48:58.445Z,2.88
2024-05-09T15:53:51.390Z,2.40
2024-05-09T15:56:17.880Z,2.60
2024-05-09T15:58:44.443Z,2.45
2024-05-09T16:01:10.959Z,2.50
2024-05-09T16:03:37.650Z,3.17
2024-05-09T16:06:04.450Z,2.72
2024-05-09T16:08:30.986Z,3.50
2024-05-09T16:10:57.635Z,2.75
2024-05-09T16:13:24.307Z,4.18
2024-05-09T16:15:51.130Z,2.75
2024-05-09T16:18:17.905Z,2.72
2024-05-09T16:20:46.422Z,3.90
2024-05-09T16:23:14.949Z,2.65
2024-05-09T16:25:41.465Z,2.95
2024-05-09T16:28:10.488Z,3.15
2024-05-09T16:30:40.903Z,2.85
2024-05-09T16:33:08.631Z,2.85
2024-05-09T16:35:36.163Z,2.85
2024-05-09T16:38:03.559Z,2.55
2024-05-09T16:40:37.292Z,2.88
2024-05-09T16:43:07.431Z,2.38
2024-05-09T16:45:34.464Z,2.50
2024-05-09T16:48:01.548Z,2.70
2024-05-09T16:50:32.781Z,2.65
2024-05-09T16:53:01.768Z,2.15
2024-05-09T16:55:28.386Z,2.55
2024-05-09T16:57:55.688Z,2.75
2024-05-09T17:00:31.671Z,2.83
2024-05-09T17:03:07.298Z,2.53
2024-05-09T17:05:34.627Z,2.42
2024-05-09T17:08:01.536Z,2.30
2024-05-09T17:10:32.833Z,2.30
2024-05-09T17:13:02.346Z,2.40
2024-05-09T17:15:29.352Z,2.03
2024-05-09T17:17:56.367Z,2.47
2024-05-09T17:23:02.085Z,2.17
2024-05-09T17:25:28.685Z,2.33
2024-05-09T17:27:55.664Z,2.38
2024-05-09T17:30:29.079Z,2.35
2024-05-09T17:33:02.180Z,2.85
2024-05-09T17:35:28.948Z,2.70
2024-05-09T17:37:55.508Z,2.70
2024-05-09T17:40:30.770Z,2.47
2024-05-09T17:43:01.066Z,2.40
2024-05-09T17:45:27.583Z,2.85
2024-05-09T17:47:54.192Z,2.30
2024-05-09T17:50:27.234Z,2.40
2024-05-09T17:53:00.318Z,2.70
2024-05-09T17:55:26.930Z,2.60
2024-05-09T17:57:53.556Z,2.50
2024-05-09T18:00:28.975Z,2.40
2024-05-09T18:03:03.645Z,2.85
2024-05-09T18:05:30.358Z,2.65
2024-05-09T18:07:57.239Z,2.80
2024-05-09T18:10:29.947Z,2.85
2024-05-09T18:13:02.346Z,2.40
2024-05-09T18:15:28.851Z,2.90
2024-05-09T18:17:55.563Z,2.65
2024-05-09T18:20:32.601Z,2.85
2024-05-09T18:23:07.397Z,2.63
2024-05-09T18:25:33.993Z,3.03
2024-05-09T18:28:02.700Z,3.30
2024-05-09T18:30:34.699Z,3.38
2024-05-09T18:33:03.663Z,3.10
2024-05-09T18:35:30.516Z,3.83
2024-05-09T18:37:57.086Z,3.80
2024-05-09T18:42:53.053Z,3.47
2024-05-09T18:45:19.582Z,4.47
2024-05-09T18:47:46.548Z,4.05
2024-05-09T18:50:20.451Z,4.45
2024-05-09T18:52:54.157Z,4.93
2024-05-09T18:55:20.686Z,4.70
2024-05-09T18:57:47.256Z,4.90
2024-05-09T19:00:23.068Z,4.47
2024-05-09T19:02:57.968Z,4.20
2024-05-09T19:05:24.901Z,4.90
2024-05-09T19:07:51.608Z,4.82
2024-05-09T19:10:22.712Z,3.70
2024-05-09T19:12:52.687Z,4.55
2024-05-09T19:15:19.172Z,4.65
2024-05-09T19:17:46.027Z,4.75
2024-05-09T19:20:24.674Z,4.40
2024-05-09T19:22:55.701Z,4.70
2024-05-09T19:25:22.208Z,5.78
2024-05-09T19:27:48.851Z,5.55
2024-05-09T19:30:25.055Z,4.82
2024-05-09T19:33:00.314Z,4.35
2024-05-09T19:35:26.838Z,4.65
2024-05-09T19:37:53.369Z,3.85
2024-05-09T19:40:28.522Z,4.05
2024-05-09T19:42:58.176Z,4.10
2024-05-09T19:45:24.730Z,3.63
2024-05-09T19:47:51.554Z,3.30
2024-05-09T19:50:26.443Z,3.90
2024-05-09T19:52:59.116Z,3.50
2024-05-09T19:55:25.975Z,4.38
2024-05-09T19:57:52.652Z,3.80
2024-05-09T20:00:26.037Z,4.03
2024-05-09T20:02:56.136Z,4.72
2024-05-09T20:05:23.696Z,5.47
2024-05-09T20:07:50.273Z,5.22
2024-05-09T20:10:23.507Z,6.15
2024-05-09T20:12:53.195Z,7.10
2024-05-09T20:15:19.740Z,5.90
2024-05-09T20:17:46.370Z,6.05
2024-05-09T20:20:23.505Z,8.25
2024-05-09T20:22:55.183Z,7.63
2024-05-09T20:25:21.734Z,6.85
2024-05-09T20:27:48.300Z,6.97
2024-05-09T20:30:21.578Z,7.03
2024-05-09T20:32:55.159Z,7.40
2024-05-09T20:35:21.666Z,6.90
2024-05-09T20:37:48.140Z,6.50
2024-05-09T20:40:21.242Z,6.43
2024-05-09T20:42:52.200Z,6.65
2024-05-09T20:45:18.702Z,6.15
2024-05-09T20:47:45.271Z,6.43
2024-05-09T20:50:20.594Z,6.13
2024-05-09T20:52:55.140Z,6.82
2024-05-09T20:55:21.709Z,6.15
2024-05-09T20:57:48.325Z,6.32
2024-05-09T21:00:18.895Z,8.35
2024-05-09T21:02:49.240Z,5.82
2024-05-09T21:05:15.903Z,6.03
2024-05-09T21:07:42.501Z,5.32
2024-05-09T21:10:15.564Z,5.80
2024-05-09T21:12:46.181Z,5.60
2024-05-09T21:15:12.718Z,5.50
2024-05-09T21:17:39.373Z,5.03
2024-05-09T21:20:11.651Z,5.28
2024-05-09T21:22:43.995Z,5.47
2024-05-09T21:25:10.493Z,5.22
2024-05-09T21:27:37.117Z,4.35
2024-05-09T21:30:05.856Z,5.47
2024-05-09T21:32:32.600Z,5.68
2024-05-09T21:34:59.142Z,5.07
2024-05-09T21:37:25.725Z,5.00
2024-05-09T21:39:52.232Z,5.13
2024-05-09T21:42:18.716Z,5.10
2024-05-09T21:44:45.276Z,5.03
2024-05-09T21:47:11.773Z,5.70
2024-05-09T21:49:38.460Z,4.93
2024-05-09T21:52:05.223Z,4.90
2024-05-09T21:54:31.780Z,5.72
2024-05-09T21:56:58.321Z,5.32
2024-05-09T21:59:24.866Z,5.38
2024-05-09T22:01:51.555Z,5.22
2024-05-09T22:04:18.169Z,5.03
2024-05-09T22:06:44.837Z,5.32
2024-05-09T22:09:11.352Z,5.15
2024-05-09T22:11:37.863Z,5.72
2024-05-09T22:14:04.382Z,5.22
2024-05-09T22:16:31.045Z,5.22
2024-05-09T22:18:57.693Z,5.15
2024-05-09T22:21:24.217Z,6.00
2024-05-09T22:23:50.670Z,5.95
2024-05-09T22:26:17.140Z,5.50
2024-05-09T22:28:43.635Z,5.97
2024-05-09T22:31:10.125Z,5.95
2024-05-09T22:33:36.892Z,5.53
2024-05-09T22:36:03.727Z,5.40
2024-05-09T22:38:30.222Z,5.10
2024-05-09T22:40:56.681Z,5.43
2024-05-09T22:43:24.874Z,5.43
2024-05-09T22:45:53.335Z,4.30
2024-05-09T22:48:20.139Z,5.05
2024-05-09T22:50:46.865Z,5.00
2024-05-09T22:53:13.428Z,5.05
2024-05-09T22:55:39.858Z,4.68
2024-05-09T22:58:06.562Z,4.50
2024-05-09T23:00:33.703Z,5.57
2024-05-09T23:03:01.625Z,5.43
2024-05-09T23:05:28.764Z,4.82
2024-05-09T23:07:55.453Z,5.70
2024-05-09T23:10:28.539Z,5.55
2024-05-09T23:15:28.419Z,5.03
2024-05-09T23:17:55.155Z,5.22
2024-05-09T23:20:29.606Z,4.57
2024-05-09T23:23:03.136Z,4.93
2024-05-09T23:25:29.689Z,5.50
2024-05-09T23:27:56.230Z,5.63
2024-05-09T23:30:33.035Z,4.97
2024-05-09T23:33:04.605Z,5.43
2024-05-09T23:35:31.181Z,5.38
2024-05-09T23:37:57.654Z,5.32
2024-05-09T23:40:34.622Z,5.13
2024-05-09T23:43:05.272Z,5.57
2024-05-09T23:45:31.830Z,4.30
2024-05-09T23:47:58.513Z,4.78
2024-05-09T23:50:33.258Z,5.40
2024-05-09T23:53:03.032Z,5.40
2024-05-09T23:55:29.562Z,4.75
2024-05-09T23:57:56.142Z,6.28
